createdAt,value
2019-04-10T09:00:54.261Z,25.83
2019-04-10T09:03:24.899Z,25.93
2019-04-10T09:05:55.429Z,24.53
2019-04-10T09:08:26.644Z,27.00
2019-04-10T09:10:57.412Z,25.53
2019-04-10T09:13:28.499Z,26.47
2019-04-10T09:16:00.454Z,24.97
2019-04-10T09:18:31.611Z,25.50
2019-04-10T09:21:02.782Z,23.50
2019-04-10T09:23:44.394Z,25.67
2019-04-10T09:26:06.174Z,24.90
2019-04-10T09:28:36.905Z,24.20
2019-04-10T09:31:07.492Z,24.27
2019-04-10T09:33:38.959Z,24.63
2019-04-10T09:36:09.591Z,24.07
2019-04-10T09:38:41.028Z,24.10
2019-04-10T09:41:11.975Z,24.03
2019-04-10T09:43:42.909Z,25.80
2019-04-10T09:46:13.446Z,22.67
2019-04-10T09:48:44.392Z,21.00
2019-04-10T09:51:18.016Z,20.63
2019-04-10T09:53:48.936Z,20.83
2019-04-10T09:56:19.588Z,20.73
2019-04-10T09:58:50.429Z,21.80
2019-04-10T10:01:22.057Z,19.50
2019-04-10T10:03:52.832Z,17.40
2019-04-10T10:06:30.190Z,18.07
2019-04-10T10:08:56.440Z,19.40
2019-04-10T10:11:27.235Z,19.13
2019-04-10T10:13:58.474Z,17.10
2019-04-10T10:16:30.360Z,16.60
2019-04-10T10:19:01.613Z,17.93
2019-04-10T10:21:32.478Z,18.17
2019-04-10T10:24:04.544Z,17.83
2019-04-10T10:26:35.056Z,16.40
2019-04-10T10:29:05.557Z,17.67
2019-04-10T10:31:36.167Z,18.77
2019-04-10T10:34:06.762Z,17.10
2019-04-10T10:36:41.918Z,16.97
2019-04-10T10:39:17.530Z,15.73
2019-04-10T10:41:50.947Z,16.23
2019-04-10T10:44:21.892Z,17.73
2019-04-10T10:47:04.567Z,15.93
2019-04-10T10:49:35.012Z,17.60
2019-04-10T10:52:05.497Z,16.93
2019-04-10T10:54:36.977Z,16.13
2019-04-10T10:57:07.589Z,15.57
2019-04-10T10:59:38.130Z,15.00
2019-04-10T11:02:10.650Z,14.97
2019-04-10T11:04:41.336Z,15.37
2019-04-10T11:07:12.370Z,16.30
2019-04-10T11:09:44.210Z,15.57
2019-04-10T11:12:16.061Z,13.77
2019-04-10T11:14:48.061Z,14.47
2019-04-10T11:17:19.698Z,14.03
2019-04-10T11:19:51.387Z,14.53
2019-04-10T11:22:24.037Z,15.97
2019-04-10T11:24:55.615Z,13.37
2019-04-10T11:27:27.735Z,13.40
2019-04-10T11:29:59.895Z,12.80
2019-04-10T11:32:30.972Z,12.47
2019-04-10T11:35:03.283Z,11.43
2019-04-10T11:40:08.469Z,11.37
2019-04-10T11:42:40.060Z,12.67
2019-04-10T11:45:13.716Z,12.53
2019-04-10T11:47:44.926Z,12.67
2019-04-10T11:50:18.339Z,11.93
2019-04-10T11:52:52.393Z,13.73
2019-04-10T11:55:25.095Z,14.13
2019-04-10T11:57:54.426Z,14.33
2019-04-10T12:00:45.374Z,14.20
2019-04-10T12:03:12.762Z,14.07
2019-04-10T12:05:46.217Z,13.77
2019-04-10T12:08:41.621Z,12.83
2019-04-10T12:13:20.593Z,10.23
2019-04-10T12:15:52.511Z,11.87
2019-04-10T12:18:24.698Z,12.63
2019-04-10T12:20:55.619Z,13.17
2019-04-10T12:23:27.222Z,13.80
2019-04-10T12:25:57.792Z,12.47
2019-04-10T12:28:29.872Z,12.67
2019-04-10T12:31:01.675Z,13.00
2019-04-10T12:33:33.695Z,11.73
2019-04-10T12:36:06.603Z,11.93
2019-04-10T12:38:37.534Z,11.37
2019-04-10T12:41:08.939Z,11.73
2019-04-10T12:43:39.533Z,11.77
2019-04-10T12:46:10.773Z,11.63
2019-04-10T12:48:41.334Z,10.00
2019-04-10T12:51:11.905Z,9.63
2019-04-10T12:53:43.595Z,10.37
2019-04-10T12:56:15.767Z,9.00
2019-04-10T12:58:47.515Z,8.80
2019-04-10T13:01:18.435Z,9.33
2019-04-10T13:03:49.481Z,9.40
2019-04-10T13:06:20.120Z,10.33
2019-04-10T13:09:00.892Z,10.80
2019-04-10T13:11:23.153Z,10.63
2019-04-10T13:13:54.613Z,10.87
2019-04-10T13:16:25.780Z,10.03
2019-04-10T13:18:56.548Z,9.07
2019-04-10T13:21:27.201Z,9.37
2019-04-10T13:23:57.672Z,10.77
2019-04-10T13:26:28.191Z,10.43
2019-04-10T13:28:58.732Z,15.57
2019-04-10T13:31:29.686Z,19.47
2019-04-10T13:34:01.300Z,23.50
2019-04-10T13:36:31.840Z,27.33
2019-04-10T13:39:02.472Z,26.77
2019-04-10T13:41:34.569Z,27.53
2019-04-10T13:44:06.497Z,28.40
2019-04-10T13:46:37.300Z,26.97
2019-04-10T13:49:09.443Z,27.70
2019-04-10T13:51:40.069Z,28.30
2019-04-10T13:54:10.532Z,27.97
2019-04-10T13:56:41.374Z,29.03
2019-04-10T13:59:13.822Z,29.27
2019-04-10T14:01:44.116Z,30.17
2019-04-10T14:04:14.731Z,31.33
2019-04-10T14:06:48.564Z,29.00
2019-04-10T14:09:30.091Z,30.83
2019-04-10T14:11:53.377Z,33.10
2019-04-10T14:14:24.534Z,35.03
2019-04-10T14:16:55.118Z,34.87
2019-04-10T14:19:27.741Z,35.33
2019-04-10T14:21:59.704Z,36.83
2019-04-10T14:24:40.359Z,36.67
2019-04-10T14:27:11.959Z,38.13
2019-04-10T14:29:42.687Z,36.87
2019-04-10T14:32:20.790Z,39.30
2019-04-10T14:34:52.433Z,37.07
2019-04-10T14:37:23.670Z,39.10
2019-04-10T14:39:55.651Z,38.17
2019-04-10T14:42:26.602Z,39.93
2019-04-10T14:44:59.251Z,40.10
2019-04-10T14:47:30.052Z,41.60
2019-04-10T14:50:00.501Z,40.90
2019-04-10T14:52:31.317Z,39.93
2019-04-10T14:55:02.085Z,40.93
2019-04-10T14:57:32.863Z,41.90
2019-04-10T15:00:04.317Z,41.57
2019-04-10T15:02:36.923Z,41.33
2019-04-10T15:05:08.048Z,43.83
2019-04-10T15:07:39.385Z,41.00
2019-04-10T15:10:10.378Z,42.93
2019-04-10T15:12:41.613Z,44.97
2019-04-10T15:15:12.271Z,45.40
2019-04-10T15:17:42.796Z,45.27
2019-04-10T15:20:15.200Z,46.60
2019-04-10T15:22:47.629Z,42.90
2019-04-10T15:25:19.228Z,43.70
2019-04-10T15:27:50.257Z,43.90
2019-04-10T15:30:22.227Z,46.27
2019-04-10T15:32:53.898Z,46.67
2019-04-10T15:35:24.427Z,43.90
2019-04-10T15:37:55.718Z,46.17
2019-04-10T15:40:27.643Z,46.70
2019-04-10T15:42:59.343Z,48.07
2019-04-10T15:45:30.204Z,45.97
2019-04-10T15:48:01.757Z,46.47
2019-04-10T15:50:34.666Z,44.87
2019-04-10T15:53:05.280Z,47.10
2019-04-10T15:55:35.995Z,45.27
2019-04-10T15:58:06.791Z,47.57
2019-04-10T16:00:37.410Z,45.07
2019-04-10T16:03:09.235Z,42.37
2019-04-10T16:05:39.994Z,42.97
2019-04-10T16:08:14.139Z,41.27
2019-04-10T16:11:03.590Z,33.83
2019-04-10T16:13:44.267Z,32.20
2019-04-10T16:16:49.400Z,31.30
2019-04-10T16:19:45.171Z,30.67
2019-04-10T16:22:23.488Z,32.73
2019-04-10T16:24:55.490Z,28.87
2019-04-10T16:27:26.084Z,30.57
2019-04-10T16:29:56.705Z,30.07
2019-04-10T16:32:29.602Z,30.60
2019-04-10T16:35:00.129Z,32.13
2019-04-10T16:37:31.367Z,30.53
2019-04-10T16:40:04.376Z,33.43
2019-04-10T16:42:34.992Z,31.93
2019-04-10T16:45:06.333Z,33.33
2019-04-10T16:47:36.871Z,33.60
2019-04-10T16:50:07.493Z,32.13
2019-04-10T16:52:38.984Z,36.00
2019-04-10T16:55:10.909Z,36.27
2019-04-10T16:57:41.484Z,37.60
2019-04-10T17:00:14.106Z,39.10
2019-04-10T17:02:44.464Z,39.73
2019-04-10T17:05:16.421Z,40.53
2019-04-10T17:07:47.488Z,36.73
2019-04-10T17:10:24.555Z,40.77
2019-04-10T17:12:53.930Z,42.63
2019-04-10T17:15:25.969Z,39.93
2019-04-10T17:17:57.137Z,44.73
2019-04-10T17:20:28.774Z,41.63
2019-04-10T17:23:00.764Z,44.57
2019-04-10T17:25:31.290Z,44.57
2019-04-10T17:28:01.911Z,45.00
2019-04-10T17:30:33.785Z,47.10
2019-04-10T17:33:04.896Z,43.23
2019-04-10T17:35:35.926Z,42.10
2019-04-10T17:38:06.842Z,43.97
2019-04-10T17:40:45.848Z,42.50
2019-04-10T17:43:10.627Z,43.53
2019-04-10T17:45:41.232Z,44.47
2019-04-10T17:48:11.820Z,45.00
2019-04-10T17:50:43.735Z,43.17
2019-04-10T17:53:16.562Z,45.60
2019-04-10T17:55:47.441Z,48.53
2019-04-10T17:58:19.095Z,47.90
2019-04-10T18:00:52.026Z,48.30
2019-04-10T18:03:23.404Z,48.60
2019-04-10T18:05:55.037Z,48.80
2019-04-10T18:08:27.101Z,46.27
2019-04-10T18:10:58.715Z,49.13
2019-04-10T18:13:29.325Z,43.30
2019-04-10T18:16:00.202Z,48.87
2019-04-10T18:18:31.643Z,48.17
2019-04-10T18:21:02.334Z,50.27
2019-04-10T18:23:33.602Z,47.27
2019-04-10T18:26:04.708Z,46.17
2019-04-10T18:28:36.411Z,48.07
2019-04-10T18:31:08.244Z,49.47
2019-04-10T18:33:38.920Z,49.83
2019-04-10T18:36:09.497Z,50.73
2019-04-10T18:38:40.148Z,49.60
2019-04-10T18:41:11.745Z,48.90
2019-04-10T18:43:42.538Z,50.43
2019-04-10T18:46:19.069Z,50.90
2019-04-10T18:48:49.514Z,51.23
2019-04-10T18:51:21.428Z,49.63
